Terminal Aerodrome Forecast
Issued by NWS

Home | Current Version | Previous Version | Text Only | Print | Product List | Glossary Off
Versions: 1 2 3 4 5 6 7 8 9 10 11 12 13 14 15 16 17 18 19 20 21 22 23 24 25 26 27 28 29 30

755
FTUS45 KGGW 020230 AAA
TAFGDV
TAF AMD
KGDV 020230Z 0203/0224 09003KT P6SM VCSH SCT030 OVC060
     FM020400 00000KT 4SM BR VCSH OVC025
     FM021100 VRB03KT 2SM BR OVC015
     FM021800 27009KT P6SM BKN050=

USA.gov is the U.S. government's official web portal to all federal, state and local government web resources and services.